createdAt,value
2022-10-11T00:00:44.211Z,9.34
2022-10-11T00:03:31.592Z,9.31
2022-10-11T00:05:59.703Z,9.30
2022-10-11T00:08:27.880Z,9.30
2022-10-11T00:10:57.233Z,9.30
2022-10-11T00:13:25.667Z,9.30
2022-10-11T00:15:54.106Z,9.28
2022-10-11T00:18:22.362Z,9.26
2022-10-11T00:20:50.506Z,9.25
2022-10-11T00:23:18.669Z,9.24
2022-10-11T00:25:56.072Z,9.20
2022-10-11T00:28:24.341Z,9.18
2022-10-11T00:30:52.485Z,9.15
2022-10-11T00:33:20.732Z,9.13
2022-10-11T00:35:49.061Z,9.14
2022-10-11T00:38:17.757Z,9.14
2022-10-11T00:40:46.153Z,9.16
2022-10-11T00:43:18.718Z,9.18
2022-10-11T00:45:56.055Z,9.22
2022-10-11T00:48:33.126Z,9.25
2022-10-11T00:51:03.221Z,9.28
2022-10-11T00:53:32.966Z,9.31
2022-10-11T00:56:09.791Z,9.35
2022-10-11T00:58:38.786Z,9.38
2022-10-11T01:01:07.527Z,9.41
2022-10-11T01:03:36.515Z,9.44
2022-10-11T01:06:05.200Z,9.46
2022-10-11T01:08:34.162Z,9.49
2022-10-11T01:11:02.575Z,9.53
2022-10-11T01:13:33.884Z,9.56
2022-10-11T01:16:14.923Z,9.58
2022-10-11T01:18:42.997Z,9.60
2022-10-11T01:21:11.091Z,9.62
2022-10-11T01:24:25.786Z,9.62
2022-10-11T01:26:59.797Z,9.62
2022-10-11T01:29:49.240Z,9.63
2022-10-11T01:32:19.608Z,9.63
2022-10-11T01:34:56.106Z,9.64
2022-10-11T01:37:36.456Z,9.63
2022-10-11T01:40:10.809Z,9.63
2022-10-11T01:42:40.127Z,9.61
2022-10-11T01:45:09.863Z,9.60
2022-10-11T01:47:39.298Z,9.61
2022-10-11T01:50:27.572Z,9.60
2022-10-11T01:52:57.504Z,9.61
2022-10-11T01:55:36.433Z,9.61
2022-10-11T01:58:22.588Z,9.61
2022-10-11T02:00:55.630Z,9.60
2022-10-11T02:03:26.815Z,9.56
2022-10-11T02:06:03.087Z,9.54
2022-10-11T02:08:39.104Z,9.52
2022-10-11T02:11:12.963Z,9.52
2022-10-11T02:13:50.382Z,9.49
2022-10-11T02:16:21.769Z,9.48
2022-10-11T02:18:51.862Z,9.48
2022-10-11T02:21:22.898Z,9.47
2022-10-11T02:23:56.468Z,9.45
2022-10-11T02:26:25.194Z,9.43
2022-10-11T02:28:55.611Z,9.42
2022-10-11T02:31:24.612Z,9.41
2022-10-11T02:33:55.999Z,9.39
2022-10-11T02:36:33.825Z,9.38
2022-10-11T02:39:06.824Z,9.36
2022-10-11T02:41:38.784Z,9.34
2022-10-11T02:44:09.614Z,9.32
2022-10-11T02:46:38.640Z,9.29
2022-10-11T02:49:07.870Z,9.27
2022-10-11T02:51:36.354Z,9.27
2022-10-11T02:54:04.534Z,9.28
2022-10-11T02:56:32.603Z,9.27
2022-10-11T02:59:00.751Z,9.26
2022-10-11T03:01:28.949Z,9.26
2022-10-11T03:03:57.167Z,9.22
2022-10-11T03:06:25.403Z,9.22
2022-10-11T03:08:53.521Z,9.20
2022-10-11T03:11:21.630Z,9.20
2022-10-11T03:13:49.720Z,9.19
2022-10-11T03:16:17.852Z,9.19
2022-10-11T03:18:45.997Z,9.20
2022-10-11T03:21:14.144Z,9.18
2022-10-11T03:23:42.873Z,9.17
2022-10-11T03:26:10.993Z,9.18
2022-10-11T03:28:39.229Z,9.16
2022-10-11T03:31:07.485Z,9.12
2022-10-11T03:33:35.619Z,9.09
2022-10-11T03:36:04.153Z,9.07
2022-10-11T03:38:32.571Z,9.05
2022-10-11T03:41:00.774Z,9.04
2022-10-11T03:43:28.937Z,9.03
2022-10-11T03:45:57.083Z,9.04
2022-10-11T03:48:25.495Z,9.05
2022-10-11T03:50:53.622Z,9.07
2022-10-11T03:53:21.750Z,9.09
2022-10-11T03:55:52.488Z,9.09
2022-10-11T03:58:21.128Z,9.10
2022-10-11T04:00:49.651Z,9.11
2022-10-11T04:03:17.763Z,9.11
2022-10-11T04:05:45.916Z,9.11
2022-10-11T04:08:14.073Z,9.12
2022-10-11T04:10:42.291Z,9.12
2022-10-11T04:13:11.474Z,9.12
2022-10-11T04:15:39.700Z,9.13
2022-10-11T04:18:08.289Z,9.14
2022-10-11T04:20:36.910Z,9.15
2022-10-11T04:23:05.050Z,9.14
2022-10-11T04:25:33.184Z,9.15
2022-10-11T04:28:01.322Z,9.14
2022-10-11T04:30:29.581Z,9.13
2022-10-11T04:32:57.823Z,9.14
2022-10-11T04:35:25.996Z,9.13
2022-10-11T04:37:54.162Z,9.12
2022-10-11T04:40:22.469Z,9.10
2022-10-11T04:42:52.091Z,9.10
2022-10-11T04:45:20.959Z,9.11
2022-10-11T04:47:49.104Z,9.10
2022-10-11T04:50:17.284Z,9.10
2022-10-11T04:52:45.435Z,9.11
2022-10-11T04:55:14.418Z,9.12
2022-10-11T04:57:42.923Z,9.13
2022-10-11T05:00:11.502Z,9.13
2022-10-11T05:02:39.657Z,9.14
2022-10-11T05:05:08.056Z,9.14
2022-10-11T05:07:36.233Z,9.16
2022-10-11T05:10:04.504Z,9.18
2022-10-11T05:12:32.629Z,9.19
2022-10-11T05:15:00.869Z,9.19
2022-10-11T05:17:29.265Z,9.18
2022-10-11T05:19:57.436Z,9.17
2022-10-11T05:22:25.573Z,9.19
2022-10-11T05:24:53.715Z,9.21
2022-10-11T05:27:21.843Z,9.22
2022-10-11T05:29:50.047Z,9.21
2022-10-11T05:32:18.264Z,9.19
2022-10-11T05:34:46.437Z,9.07
2022-10-11T05:37:14.599Z,8.92
2022-10-11T05:39:42.755Z,8.84
2022-10-11T05:42:10.941Z,8.80
2022-10-11T05:44:39.293Z,8.81
2022-10-11T05:47:07.530Z,8.83
2022-10-11T05:49:35.752Z,8.86
2022-10-11T05:52:03.983Z,8.90
2022-10-11T05:54:32.632Z,8.93
2022-10-11T05:57:00.824Z,8.96
2022-10-11T05:59:29.011Z,8.99
2022-10-11T06:01:57.173Z,9.03
2022-10-11T06:04:25.379Z,9.07
2022-10-11T06:06:53.661Z,9.10
2022-10-11T06:09:21.801Z,9.12
2022-10-11T06:11:50.057Z,9.13
2022-10-11T06:14:18.617Z,9.15
2022-10-11T06:16:46.755Z,9.18
2022-10-11T06:19:14.965Z,9.23
2022-10-11T06:21:43.294Z,9.27
2022-10-11T06:24:12.563Z,9.30
2022-10-11T06:26:40.728Z,9.34
2022-10-11T06:29:08.908Z,9.37
2022-10-11T06:31:37.092Z,9.40
2022-10-11T06:34:05.197Z,9.41
2022-10-11T06:36:33.338Z,9.38
2022-10-11T06:39:01.767Z,9.39
2022-10-11T06:41:30.583Z,9.42
2022-10-11T06:43:59.148Z,9.45
2022-10-11T06:46:27.959Z,9.46
2022-10-11T06:48:56.775Z,9.47
2022-10-11T06:51:25.028Z,9.49
2022-10-11T06:53:55.663Z,9.53
2022-10-11T06:56:24.177Z,9.56
2022-10-11T06:58:53.420Z,9.60
2022-10-11T07:01:23.965Z,9.66
2022-10-11T07:03:53.283Z,9.71
2022-10-11T07:06:22.634Z,9.72
2022-10-11T07:08:50.800Z,9.75
2022-10-11T07:11:20.326Z,9.80
2022-10-11T07:13:52.526Z,9.88
2022-10-11T07:16:21.487Z,10.02
2022-10-11T07:18:57.212Z,10.16
2022-10-11T07:21:28.732Z,10.25
2022-10-11T07:23:57.095Z,10.34
2022-10-11T07:26:25.380Z,10.45
2022-10-11T07:28:53.733Z,10.58
2022-10-11T07:31:23.111Z,10.69
2022-10-11T07:33:51.663Z,10.80
2022-10-11T07:36:19.847Z,10.91
2022-10-11T07:38:48.499Z,11.03
2022-10-11T07:41:16.876Z,11.12
2022-10-11T07:43:47.168Z,11.21
2022-10-11T07:46:16.676Z,11.28
2022-10-11T07:48:44.912Z,11.36
2022-10-11T07:51:18.203Z,11.48
2022-10-11T07:53:56.610Z,11.72
2022-10-11T07:56:26.580Z,12.01
2022-10-11T07:58:56.031Z,12.34
2022-10-11T08:01:24.753Z,12.69
2022-10-11T08:03:54.168Z,13.10
2022-10-11T08:06:23.515Z,13.48
2022-10-11T08:08:51.719Z,13.89
2022-10-11T08:11:30.503Z,14.27
2022-10-11T08:13:59.330Z,14.55
2022-10-11T08:16:27.830Z,14.74
2022-10-11T08:18:57.342Z,14.92
2022-10-11T08:21:27.059Z,15.19
2022-10-11T08:23:55.302Z,15.43
2022-10-11T08:26:23.773Z,15.64
2022-10-11T08:28:51.961Z,15.68
2022-10-11T08:31:20.213Z,15.67
2022-10-11T08:33:48.410Z,15.56
2022-10-11T08:36:16.565Z,15.40
2022-10-11T08:38:44.754Z,15.25
2022-10-11T08:41:33.157Z,15.18
2022-10-11T08:44:01.286Z,15.17
2022-10-11T08:46:32.191Z,15.25
2022-10-11T08:49:00.301Z,15.24
2022-10-11T08:51:39.969Z,15.20
2022-10-11T08:54:13.947Z,15.09
2022-10-11T08:56:43.841Z,14.95
2022-10-11T08:59:11.830Z,14.86
2022-10-11T09:01:44.908Z,14.82
2022-10-11T09:04:17.391Z,14.80
2022-10-11T09:07:00.233Z,14.80
2022-10-11T09:09:31.981Z,14.78
2022-10-11T09:12:27.106Z,14.80
2022-10-11T09:15:11.535Z,14.79
2022-10-11T09:17:54.250Z,14.83
2022-10-11T09:20:25.379Z,14.94
2022-10-11T09:23:08.688Z,14.99
2022-10-11T09:25:44.763Z,15.07
2022-10-11T09:28:20.491Z,15.13
2022-10-11T09:30:51.039Z,15.16
2022-10-11T09:33:21.377Z,15.23
2022-10-11T09:35:51.525Z,15.30
2022-10-11T09:38:38.249Z,15.34
2022-10-11T09:41:06.347Z,15.36
2022-10-11T09:43:34.428Z,15.33
2022-10-11T09:46:02.830Z,15.29
2022-10-11T09:48:37.848Z,15.22
2022-10-11T09:51:08.431Z,15.20
2022-10-11T09:53:49.900Z,15.27
2022-10-11T09:56:17.999Z,15.38
2022-10-11T09:58:46.001Z,15.43
2022-10-11T10:01:23.410Z,15.47
2022-10-11T10:04:04.937Z,15.53
2022-10-11T10:06:32.973Z,15.63
2022-10-11T10:09:20.888Z,15.68
2022-10-11T10:11:49.409Z,15.68
2022-10-11T10:14:20.607Z,15.74
2022-10-11T10:16:48.925Z,15.90
2022-10-11T10:19:18.923Z,16.12
2022-10-11T10:21:48.328Z,16.28
2022-10-11T10:24:27.077Z,16.39
2022-10-11T10:27:17.155Z,16.66
2022-10-11T10:29:47.673Z,17.03
2022-10-11T10:32:28.111Z,17.28
2022-10-11T10:35:05.341Z,17.56
2022-10-11T10:37:40.998Z,17.77
2022-10-11T10:40:17.562Z,18.05
2022-10-11T10:42:45.645Z,18.15
2022-10-11T10:45:21.579Z,18.34
2022-10-11T10:48:05.553Z,18.63
2022-10-11T10:50:39.508Z,18.90
2022-10-11T10:53:23.214Z,19.19
2022-10-11T10:56:08.770Z,19.36
2022-10-11T10:58:43.149Z,19.60
2022-10-11T11:01:11.223Z,19.72
2022-10-11T11:03:44.267Z,19.81
2022-10-11T11:06:21.539Z,19.95
2022-10-11T11:09:25.045Z,20.09
2022-10-11T11:12:00.901Z,20.30
2022-10-11T11:14:47.857Z,20.42
2022-10-11T11:17:21.252Z,20.64
2022-10-11T11:19:57.487Z,20.89
2022-10-11T11:22:34.981Z,21.11
2022-10-11T11:25:22.061Z,21.37
2022-10-11T11:27:55.999Z,21.64
2022-10-11T11:30:29.522Z,21.80
2022-10-11T11:33:03.817Z,21.88
2022-10-11T11:35:38.259Z,21.89
2022-10-11T11:38:29.258Z,21.98
2022-10-11T11:41:02.420Z,22.10
2022-10-11T11:43:32.861Z,22.26
2022-10-11T11:46:15.938Z,22.50
2022-10-11T11:48:44.782Z,22.70
2022-10-11T11:51:18.868Z,22.78
2022-10-11T11:53:50.843Z,22.92
2022-10-11T11:56:24.906Z,22.95
2022-10-11T11:59:00.415Z,22.88
2022-10-11T12:01:42.710Z,22.85
2022-10-11T12:04:28.646Z,22.90
2022-10-11T12:07:16.820Z,23.07
2022-10-11T12:09:50.743Z,23.23
2022-10-11T12:12:28.013Z,23.43
2022-10-11T12:15:05.199Z,23.58
2022-10-11T12:17:33.377Z,23.72
2022-10-11T12:20:09.732Z,23.88
2022-10-11T12:22:58.587Z,23.99
2022-10-11T12:25:26.595Z,24.08
2022-10-11T12:27:55.761Z,24.08
2022-10-11T12:30:42.732Z,24.00
2022-10-11T12:33:25.967Z,23.81
2022-10-11T12:35:54.051Z,23.57
2022-10-11T12:38:22.121Z,23.33
2022-10-11T12:40:54.983Z,23.11
2022-10-11T12:43:23.031Z,23.14
2022-10-11T12:45:51.337Z,23.12
2022-10-11T12:48:38.527Z,23.10
2022-10-11T12:51:27.501Z,23.03
2022-10-11T12:54:24.978Z,22.89
2022-10-11T12:56:46.325Z,22.80
2022-10-11T12:59:16.978Z,22.62
2022-10-11T13:01:53.322Z,22.50
2022-10-11T13:04:23.275Z,22.25
2022-10-11T13:06:56.792Z,21.95
2022-10-11T13:09:45.316Z,21.74
2022-10-11T13:12:18.130Z,21.60
2022-10-11T13:14:48.399Z,21.62
2022-10-11T13:17:27.242Z,21.53
2022-10-11T13:20:13.780Z,21.30
2022-10-11T13:22:42.002Z,21.22
2022-10-11T13:25:15.147Z,21.13
2022-10-11T13:27:43.861Z,21.06
2022-10-11T13:30:17.608Z,20.95
2022-10-11T13:32:45.765Z,20.75
2022-10-11T13:35:20.974Z,20.51
2022-10-11T13:37:52.158Z,20.23
2022-10-11T13:40:21.340Z,20.02
2022-10-11T13:42:50.886Z,19.85
2022-10-11T13:45:23.575Z,19.66
2022-10-11T13:47:52.892Z,19.48
2022-10-11T13:50:22.833Z,19.32
2022-10-11T13:52:56.085Z,19.15
2022-10-11T13:55:25.423Z,19.02
2022-10-11T13:57:54.144Z,18.89
2022-10-11T14:00:27.503Z,18.73
2022-10-11T14:03:17.265Z,18.55
2022-10-11T14:05:53.678Z,18.38
2022-10-11T14:08:24.911Z,18.23
2022-10-11T14:10:57.159Z,18.11
2022-10-11T14:13:30.281Z,18.02
2022-10-11T14:16:03.596Z,17.87
2022-10-11T14:18:38.870Z,17.75
2022-10-11T14:21:19.060Z,17.67
2022-10-11T14:23:47.644Z,17.64
2022-10-11T14:26:18.661Z,17.58
2022-10-11T14:28:54.355Z,17.58
2022-10-11T14:31:22.576Z,17.53
2022-10-11T14:33:50.698Z,17.53
2022-10-11T14:36:18.753Z,17.47
2022-10-11T14:38:46.753Z,17.42
2022-10-11T14:41:14.825Z,17.37
2022-10-11T14:43:42.836Z,17.32
2022-10-11T14:46:19.937Z,17.29
2022-10-11T14:48:56.743Z,17.23
2022-10-11T14:51:29.245Z,17.15
2022-10-11T14:53:57.302Z,17.10
2022-10-11T14:56:25.348Z,17.01
2022-10-11T14:58:53.417Z,16.93
2022-10-11T15:01:21.533Z,16.86
2022-10-11T15:03:49.601Z,16.79
2022-10-11T15:06:20.128Z,16.71
2022-10-11T15:08:48.185Z,16.67
2022-10-11T15:11:20.505Z,16.60
2022-10-11T15:13:49.425Z,16.55
2022-10-11T15:16:19.926Z,16.48
2022-10-11T15:18:52.136Z,16.43
2022-10-11T15:21:21.273Z,16.37
2022-10-11T15:23:50.309Z,16.31
2022-10-11T15:26:20.746Z,16.24
2022-10-11T15:28:49.382Z,16.16
2022-10-11T15:31:17.950Z,16.07
2022-10-11T15:33:46.348Z,15.99
2022-10-11T15:36:16.564Z,15.89
2022-10-11T15:38:45.226Z,15.78
2022-10-11T15:41:15.659Z,15.69
2022-10-11T15:43:44.566Z,15.61
2022-10-11T15:46:14.125Z,15.54
2022-10-11T15:48:42.387Z,15.48
2022-10-11T15:51:10.602Z,15.39
2022-10-11T15:53:38.877Z,15.32
2022-10-11T15:56:09.203Z,15.26
2022-10-11T15:58:39.149Z,15.20
2022-10-11T16:01:09.337Z,15.14
2022-10-11T16:03:37.962Z,15.10
2022-10-11T16:06:06.414Z,15.05
2022-10-11T16:08:35.290Z,14.99
2022-10-11T16:11:04.603Z,14.93
2022-10-11T16:13:33.101Z,14.85
2022-10-11T16:16:02.443Z,14.78
2022-10-11T16:18:35.122Z,14.70
2022-10-11T16:21:09.211Z,14.67
2022-10-11T16:23:38.342Z,14.62
2022-10-11T16:26:08.953Z,14.56
2022-10-11T16:28:38.200Z,14.51
2022-10-11T16:31:11.143Z,14.43
2022-10-11T16:33:48.385Z,14.36
2022-10-11T16:36:40.782Z,14.30
2022-10-11T16:39:13.078Z,14.24
2022-10-11T16:41:41.409Z,14.20
2022-10-11T16:44:13.510Z,14.14
2022-10-11T16:46:42.439Z,14.09
2022-10-11T16:49:10.837Z,14.05
2022-10-11T16:51:38.993Z,14.03
2022-10-11T16:54:07.171Z,14.00
2022-10-11T16:56:39.766Z,13.98
2022-10-11T16:59:08.547Z,13.96
2022-10-11T17:01:36.831Z,13.94
2022-10-11T17:04:05.397Z,13.90
2022-10-11T17:06:33.588Z,13.87
2022-10-11T17:09:02.223Z,13.84
2022-10-11T17:11:30.378Z,13.84
2022-10-11T17:14:00.266Z,13.84
2022-10-11T17:16:28.404Z,13.83
2022-10-11T17:18:56.582Z,13.82
2022-10-11T17:21:24.738Z,13.80
2022-10-11T17:23:52.923Z,13.77
2022-10-11T17:26:23.436Z,13.73
2022-10-11T17:28:51.709Z,13.70
2022-10-11T17:31:19.957Z,13.66
2022-10-11T17:33:48.103Z,13.65
2022-10-11T17:36:19.503Z,13.62
2022-10-11T17:38:48.140Z,13.58
2022-10-11T17:41:16.857Z,13.55
2022-10-11T17:43:45.166Z,13.54
2022-10-11T17:46:14.369Z,13.53
2022-10-11T17:48:42.561Z,13.55
2022-10-11T17:51:12.442Z,13.57
2022-10-11T17:53:40.804Z,13.60
2022-10-11T17:56:10.731Z,13.61
2022-10-11T17:58:39.152Z,13.61
2022-10-11T18:01:09.185Z,13.61
2022-10-11T18:03:37.898Z,13.59
2022-10-11T18:06:10.239Z,13.58
2022-10-11T18:08:40.536Z,13.58
2022-10-11T18:11:09.837Z,13.56
2022-10-11T18:13:37.956Z,13.56
2022-10-11T18:16:06.519Z,13.56
2022-10-11T18:18:35.720Z,13.58
2022-10-11T18:21:03.946Z,13.58
2022-10-11T18:23:32.806Z,13.59
2022-10-11T18:26:08.096Z,13.61
2022-10-11T18:28:36.754Z,13.61
2022-10-11T18:31:13.011Z,13.61
2022-10-11T18:33:42.735Z,13.62
2022-10-11T18:36:13.597Z,13.62
2022-10-11T18:38:46.779Z,13.64
2022-10-11T18:41:19.787Z,13.65
2022-10-11T18:43:56.518Z,13.67
2022-10-11T18:46:25.035Z,13.66
2022-10-11T18:48:54.150Z,13.67
2022-10-11T18:51:22.482Z,13.69
2022-10-11T18:53:50.616Z,13.70
2022-10-11T18:56:20.842Z,13.71
2022-10-11T18:58:50.358Z,13.72
2022-10-11T19:01:18.548Z,13.72
2022-10-11T19:03:47.897Z,13.72
2022-10-11T19:06:17.848Z,13.74
2022-10-11T19:08:50.177Z,13.75
2022-10-11T19:11:22.306Z,13.74
2022-10-11T19:13:55.604Z,13.74
2022-10-11T19:16:24.225Z,13.75
2022-10-11T19:18:52.811Z,13.74
2022-10-11T19:21:21.337Z,13.76
2022-10-11T19:23:50.200Z,13.75
2022-10-11T19:26:23.891Z,13.74
2022-10-11T19:28:56.915Z,13.72
2022-10-11T19:31:25.594Z,13.72
2022-10-11T19:33:53.826Z,13.71
2022-10-11T19:36:22.169Z,13.70
2022-10-11T19:38:50.886Z,13.69
2022-10-11T19:41:20.455Z,13.71
2022-10-11T19:43:48.739Z,13.70
2022-10-11T19:46:37.888Z,13.69
2022-10-11T19:49:06.726Z,13.68
2022-10-11T19:51:35.325Z,13.67
2022-10-11T19:54:07.601Z,13.66
2022-10-11T19:56:36.141Z,13.65
2022-10-11T19:59:06.538Z,13.65
2022-10-11T20:01:35.970Z,13.63
2022-10-11T20:04:08.736Z,13.63
2022-10-11T20:06:39.375Z,13.62
2022-10-11T20:09:28.519Z,13.63
2022-10-11T20:11:56.861Z,13.62
2022-10-11T20:14:25.350Z,13.63
2022-10-11T20:16:53.673Z,13.63
2022-10-11T20:19:27.781Z,13.63
2022-10-11T20:21:58.637Z,13.63
2022-10-11T20:24:29.087Z,13.63
2022-10-11T20:26:57.307Z,13.63
2022-10-11T20:29:25.631Z,13.63
2022-10-11T20:31:53.837Z,13.62
2022-10-11T20:34:22.441Z,13.62
2022-10-11T20:36:50.717Z,13.60
2022-10-11T20:39:18.849Z,13.60
2022-10-11T20:41:46.959Z,13.59
2022-10-11T20:44:16.314Z,13.59
2022-10-11T20:46:44.465Z,13.59
2022-10-11T20:49:12.655Z,13.57
2022-10-11T20:51:41.894Z,13.56
2022-10-11T20:54:10.399Z,13.57
2022-10-11T20:56:38.608Z,13.57
2022-10-11T20:59:07.008Z,13.56
2022-10-11T21:01:39.703Z,13.55
2022-10-11T21:04:09.968Z,13.56
2022-10-11T21:06:38.105Z,13.54
2022-10-11T21:09:06.193Z,13.53
2022-10-11T21:11:35.231Z,13.51
2022-10-11T21:14:04.973Z,13.51
2022-10-11T21:16:34.039Z,13.48
2022-10-11T21:19:02.301Z,13.47
2022-10-11T21:21:30.903Z,13.46
2022-10-11T21:24:00.419Z,13.44
2022-10-11T21:26:28.833Z,13.41
2022-10-11T21:28:59.303Z,13.39
2022-10-11T21:31:33.573Z,13.37
2022-10-11T21:34:03.425Z,13.35
2022-10-11T21:36:31.672Z,13.33
2022-10-11T21:39:01.662Z,13.29
2022-10-11T21:41:30.365Z,13.28
2022-10-11T21:43:58.802Z,13.26
2022-10-11T21:46:47.565Z,13.23
2022-10-11T21:49:16.643Z,13.20
2022-10-11T21:51:44.875Z,13.19
2022-10-11T21:54:13.081Z,13.17
2022-10-11T21:56:41.414Z,13.15
2022-10-11T21:59:12.298Z,13.13
2022-10-11T22:01:43.690Z,13.11
2022-10-11T22:04:12.251Z,13.10
2022-10-11T22:06:40.528Z,13.08
2022-10-11T22:09:09.001Z,13.09
2022-10-11T22:11:37.539Z,13.08
2022-10-11T22:14:05.688Z,13.06
2022-10-11T22:16:34.933Z,13.04
2022-10-11T22:19:03.658Z,13.03
2022-10-11T22:21:31.798Z,13.00
2022-10-11T22:24:00.159Z,12.99
2022-10-11T22:26:30.890Z,12.97
2022-10-11T22:29:00.321Z,12.96
2022-10-11T22:31:29.367Z,12.96
2022-10-11T22:33:59.068Z,12.97
2022-10-11T22:36:28.094Z,12.97
2022-10-11T22:38:56.537Z,12.99
2022-10-11T22:41:24.714Z,12.99
2022-10-11T22:43:52.956Z,13.00
2022-10-11T22:46:21.856Z,13.01
2022-10-11T22:48:50.028Z,13.02
2022-10-11T22:51:18.249Z,13.04
2022-10-11T22:53:46.393Z,13.04
2022-10-11T22:56:14.574Z,13.05
2022-10-11T22:58:42.652Z,13.06
2022-10-11T23:01:12.601Z,13.06
2022-10-11T23:03:40.860Z,13.07
2022-10-11T23:06:09.374Z,13.06
2022-10-11T23:08:37.749Z,13.04
2022-10-11T23:11:06.827Z,13.02
2022-10-11T23:13:35.428Z,13.00
2022-10-11T23:16:08.112Z,12.98
2022-10-11T23:18:36.560Z,12.98
2022-10-11T23:21:05.547Z,12.97
2022-10-11T23:23:34.074Z,12.98
2022-10-11T23:26:06.917Z,12.98
2022-10-11T23:28:35.410Z,12.98
2022-10-11T23:31:13.469Z,13.00
2022-10-11T23:33:41.598Z,13.01
2022-10-11T23:36:17.359Z,13.03
2022-10-11T23:38:49.620Z,13.02
2022-10-11T23:41:17.863Z,13.02
2022-10-11T23:43:46.061Z,13.02
2022-10-11T23:46:14.187Z,13.02
2022-10-11T23:48:42.431Z,13.03
2022-10-11T23:51:10.966Z,13.02
2022-10-11T23:53:39.201Z,13.02
2022-10-11T23:56:07.894Z,13.02
2022-10-11T23:58:36.581Z,13.01
